createdAt,value
2023-04-16T00:00:56.268Z,12.11
2023-04-16T00:03:25.626Z,12.12
2023-04-16T00:05:55.788Z,12.16
2023-04-16T00:08:25.399Z,12.16
2023-04-16T00:10:54.004Z,12.13
2023-04-16T00:13:22.561Z,12.10
2023-04-16T00:15:50.355Z,12.01
2023-04-16T00:18:18.248Z,12.02
2023-04-16T00:20:47.464Z,12.04
2023-04-16T00:23:15.340Z,12.01
2023-04-16T00:25:43.631Z,11.92
2023-04-16T00:28:11.436Z,11.89
2023-04-16T00:30:40.075Z,11.94
2023-04-16T00:33:07.898Z,11.91
2023-04-16T00:35:35.959Z,11.86
2023-04-16T00:38:05.551Z,11.88
2023-04-16T00:40:33.374Z,11.78
2023-04-16T00:43:01.352Z,11.81
2023-04-16T00:45:29.265Z,11.79
2023-04-16T00:48:00.610Z,11.75
2023-04-16T00:50:28.995Z,11.74
2023-04-16T00:52:58.120Z,11.66
2023-04-16T00:55:27.504Z,11.50
2023-04-16T00:57:55.703Z,11.52
2023-04-16T01:00:23.903Z,11.59
2023-04-16T01:02:51.903Z,11.61
2023-04-16T01:05:20.519Z,11.60
2023-04-16T01:07:48.629Z,11.68
2023-04-16T01:10:16.569Z,11.57
2023-04-16T01:12:45.907Z,11.58
2023-04-16T01:15:13.701Z,11.35
2023-04-16T01:17:42.441Z,11.44
2023-04-16T01:20:11.231Z,11.48
2023-04-16T01:22:40.536Z,11.59
2023-04-16T01:25:08.649Z,11.55
2023-04-16T01:27:37.670Z,11.58
2023-04-16T01:30:06.991Z,11.62
2023-04-16T01:32:46.467Z,11.70
2023-04-16T01:35:14.839Z,11.71
2023-04-16T01:37:45.059Z,11.74
2023-04-16T01:40:13.562Z,11.76
2023-04-16T01:42:41.660Z,11.81
2023-04-16T01:45:11.720Z,11.81
2023-04-16T01:47:41.801Z,11.87
2023-04-16T01:50:11.817Z,11.93
2023-04-16T01:52:39.781Z,11.98
2023-04-16T01:55:10.524Z,12.00
2023-04-16T01:57:39.014Z,11.99
2023-04-16T02:00:09.886Z,11.87
2023-04-16T02:02:46.738Z,11.82
2023-04-16T02:05:20.106Z,11.82
2023-04-16T02:07:47.932Z,11.84
2023-04-16T02:10:17.147Z,11.86
2023-04-16T02:12:45.632Z,11.87
2023-04-16T02:15:15.828Z,11.97
2023-04-16T02:17:43.765Z,12.05
2023-04-16T02:20:12.725Z,12.00
2023-04-16T02:22:52.903Z,11.90
2023-04-16T02:25:24.427Z,11.90
2023-04-16T02:27:54.856Z,11.92
2023-04-16T02:30:34.915Z,11.93
2023-04-16T02:33:05.477Z,11.90
2023-04-16T02:35:33.579Z,11.92
2023-04-16T02:38:01.937Z,11.94
2023-04-16T02:40:31.802Z,11.89
2023-04-16T02:43:00.515Z,11.86
2023-04-16T02:45:28.724Z,11.97
2023-04-16T02:47:56.685Z,11.89
2023-04-16T02:50:24.456Z,11.88
2023-04-16T02:52:52.499Z,11.97
2023-04-16T02:55:20.280Z,12.03
2023-04-16T02:57:49.359Z,12.00
2023-04-16T03:00:17.335Z,12.06
2023-04-16T03:02:45.228Z,12.10
2023-04-16T03:05:13.295Z,12.06
2023-04-16T03:07:41.121Z,12.00
2023-04-16T03:10:10.186Z,12.06
2023-04-16T03:12:37.979Z,12.08
2023-04-16T03:15:10.488Z,11.94
2023-04-16T03:17:38.434Z,11.86
2023-04-16T03:20:08.008Z,11.86
2023-04-16T03:22:36.006Z,11.87
2023-04-16T03:25:04.112Z,11.78
2023-04-16T03:27:32.275Z,11.80
2023-04-16T03:30:00.017Z,11.81
2023-04-16T03:32:30.412Z,11.73
2023-04-16T03:34:58.562Z,11.78
2023-04-16T03:37:26.668Z,11.81
2023-04-16T03:39:54.530Z,11.80
2023-04-16T03:42:22.844Z,11.76
2023-04-16T03:44:50.977Z,11.74
2023-04-16T03:47:19.936Z,11.75
2023-04-16T03:49:50.965Z,11.75
2023-04-16T03:52:21.140Z,11.81
2023-04-16T03:54:48.941Z,11.88
2023-04-16T03:57:24.380Z,11.76
2023-04-16T03:59:54.062Z,11.85
2023-04-16T04:02:22.879Z,11.86
2023-04-16T04:04:52.284Z,11.88
2023-04-16T04:07:20.218Z,11.86
2023-04-16T04:09:48.267Z,11.86
2023-04-16T04:12:16.532Z,11.88
2023-04-16T04:14:45.188Z,11.90
2023-04-16T04:17:13.028Z,11.95
2023-04-16T04:19:47.121Z,11.97
2023-04-16T04:22:23.907Z,11.97
2023-04-16T04:24:53.715Z,11.97
2023-04-16T04:27:21.823Z,11.97
2023-04-16T04:29:49.777Z,11.95
2023-04-16T04:32:17.646Z,11.92
2023-04-16T04:34:46.472Z,11.91
2023-04-16T04:37:14.277Z,11.90
2023-04-16T04:39:43.574Z,11.80
2023-04-16T04:42:13.841Z,11.73
2023-04-16T04:44:41.793Z,11.85
2023-04-16T04:47:10.179Z,11.72
2023-04-16T04:49:38.226Z,11.71
2023-04-16T04:52:06.237Z,11.66
2023-04-16T04:54:34.283Z,11.75
2023-04-16T04:57:03.775Z,11.86
2023-04-16T04:59:31.730Z,11.87
2023-04-16T05:02:02.440Z,11.95
2023-04-16T05:04:30.301Z,11.94
2023-04-16T05:06:58.045Z,11.96
2023-04-16T05:09:25.861Z,12.00
2023-04-16T05:11:53.917Z,12.05
2023-04-16T05:14:23.100Z,12.09
2023-04-16T05:16:51.423Z,12.13
2023-04-16T05:19:19.225Z,12.16
2023-04-16T05:21:46.997Z,12.08
2023-04-16T05:24:15.057Z,11.87
2023-04-16T05:26:43.201Z,11.96
2023-04-16T05:29:11.128Z,11.99
2023-04-16T05:31:41.038Z,11.92
2023-04-16T05:34:08.783Z,11.89
2023-04-16T05:36:36.596Z,11.89
2023-04-16T05:39:05.219Z,11.92
2023-04-16T05:41:33.071Z,11.90
2023-04-16T05:44:00.840Z,11.93
2023-04-16T05:46:28.686Z,11.97
2023-04-16T05:48:58.043Z,11.97
2023-04-16T05:51:27.243Z,12.00
2023-04-16T05:53:55.064Z,12.00
2023-04-16T05:56:23.461Z,12.04
2023-04-16T05:58:51.282Z,12.05
2023-04-16T06:01:19.404Z,12.07
2023-04-16T06:03:47.478Z,11.99
2023-04-16T06:06:16.764Z,12.01
2023-04-16T06:08:44.640Z,12.03
2023-04-16T06:11:12.553Z,12.05
2023-04-16T06:13:40.354Z,11.97
2023-04-16T06:16:08.686Z,11.98
2023-04-16T06:18:36.748Z,12.00
2023-04-16T06:21:05.096Z,12.02
2023-04-16T06:23:34.293Z,12.02
2023-04-16T06:26:02.238Z,12.10
2023-04-16T06:28:30.129Z,12.16
2023-04-16T06:30:58.222Z,12.17
2023-04-16T06:33:26.308Z,12.22
2023-04-16T06:35:54.165Z,12.23
2023-04-16T06:38:22.295Z,12.25
2023-04-16T06:40:51.352Z,12.25
2023-04-16T06:43:19.255Z,12.24
2023-04-16T06:45:47.096Z,12.30
2023-04-16T06:48:14.992Z,12.33
2023-04-16T06:50:42.839Z,12.30
2023-04-16T06:53:10.656Z,12.26
2023-04-16T06:55:38.690Z,12.28
2023-04-16T06:58:07.842Z,12.17
2023-04-16T07:00:35.725Z,12.16
2023-04-16T07:03:03.911Z,12.12
2023-04-16T07:05:31.946Z,12.08
2023-04-16T07:08:00.113Z,12.06
2023-04-16T07:10:27.875Z,11.81
2023-04-16T07:12:55.701Z,11.93
2023-04-16T07:15:24.796Z,12.02
2023-04-16T07:17:52.661Z,12.04
2023-04-16T07:20:20.471Z,12.15
2023-04-16T07:22:48.245Z,12.21
2023-04-16T07:25:16.053Z,12.24
2023-04-16T07:27:43.867Z,12.27
2023-04-16T07:30:12.450Z,12.20
2023-04-16T07:32:41.608Z,12.23
2023-04-16T07:35:10.162Z,12.21
2023-04-16T07:37:38.009Z,12.17
2023-04-16T07:40:06.887Z,12.19
2023-04-16T07:42:34.650Z,12.23
2023-04-16T07:45:02.434Z,12.15
2023-04-16T07:47:30.470Z,12.20
2023-04-16T07:49:59.716Z,12.30
2023-04-16T07:52:27.774Z,12.39
2023-04-16T07:54:55.570Z,12.43
2023-04-16T07:57:23.429Z,12.43
2023-04-16T07:59:51.455Z,12.44
2023-04-16T08:02:19.495Z,12.46
2023-04-16T08:04:47.574Z,12.46
2023-04-16T08:07:16.818Z,12.42
2023-04-16T08:09:52.777Z,12.24
2023-04-16T08:12:21.224Z,12.34
2023-04-16T08:14:49.307Z,12.26
2023-04-16T08:17:17.519Z,12.40
2023-04-16T08:19:45.883Z,12.51
2023-04-16T08:22:13.969Z,12.56
2023-04-16T08:24:43.322Z,12.67
2023-04-16T08:27:18.321Z,12.73
2023-04-16T08:29:47.288Z,12.81
2023-04-16T08:32:15.314Z,12.90
2023-04-16T08:34:43.900Z,12.97
2023-04-16T08:37:11.781Z,13.02
2023-04-16T08:39:39.550Z,13.06
2023-04-16T08:42:15.227Z,13.12
2023-04-16T08:44:49.214Z,13.10
2023-04-16T08:47:17.359Z,13.15
2023-04-16T08:49:46.188Z,13.20
2023-04-16T08:52:19.541Z,13.19
2023-04-16T08:54:57.052Z,13.27
2023-04-16T08:57:31.770Z,13.31
2023-04-16T09:00:00.572Z,13.25
2023-04-16T09:02:29.688Z,13.30
2023-04-16T09:05:00.822Z,13.34
2023-04-16T09:07:30.252Z,13.45
2023-04-16T09:10:00.668Z,13.37
2023-04-16T09:12:31.844Z,13.47
2023-04-16T09:15:03.046Z,13.51
2023-04-16T09:17:31.055Z,13.51
2023-04-16T09:19:59.112Z,13.53
2023-04-16T09:22:26.873Z,13.53
2023-04-16T09:24:54.783Z,13.57
2023-04-16T09:27:25.371Z,13.63
2023-04-16T09:29:55.476Z,13.63
2023-04-16T09:32:27.430Z,13.71
2023-04-16T09:34:57.727Z,13.76
2023-04-16T09:37:26.360Z,13.74
2023-04-16T09:39:56.756Z,13.80
2023-04-16T09:42:29.083Z,13.80
2023-04-16T09:45:00.496Z,13.78
2023-04-16T09:47:41.027Z,13.84
2023-04-16T09:50:12.501Z,13.86
2023-04-16T09:52:40.883Z,13.83
2023-04-16T09:55:10.261Z,13.85
2023-04-16T09:57:39.473Z,13.85
2023-04-16T10:00:10.483Z,13.83
2023-04-16T10:02:42.020Z,13.93
2023-04-16T10:05:10.695Z,13.94
2023-04-16T10:07:39.055Z,13.91
2023-04-16T10:10:08.159Z,13.97
2023-04-16T10:12:35.909Z,14.00
2023-04-16T10:15:04.913Z,13.95
2023-04-16T10:17:34.720Z,13.99
2023-04-16T10:20:04.220Z,14.07
2023-04-16T10:22:32.251Z,14.09
2023-04-16T10:25:00.525Z,14.11
2023-04-16T10:27:29.130Z,14.16
2023-04-16T10:29:57.717Z,14.08
2023-04-16T10:32:28.768Z,14.03
2023-04-16T10:34:59.035Z,14.09
2023-04-16T10:37:31.221Z,14.19
2023-04-16T10:39:59.917Z,14.14
2023-04-16T10:42:27.762Z,14.13
2023-04-16T10:44:55.620Z,14.13
2023-04-16T10:47:27.218Z,14.10
2023-04-16T10:49:55.247Z,14.07
2023-04-16T10:52:25.468Z,13.95
2023-04-16T10:54:55.661Z,13.94
2023-04-16T10:57:23.507Z,14.01
2023-04-16T10:59:51.461Z,13.93
2023-04-16T11:02:20.452Z,13.91
2023-04-16T11:04:49.989Z,13.74
2023-04-16T11:07:20.738Z,13.73
2023-04-16T11:09:53.686Z,13.81
2023-04-16T11:12:23.152Z,13.83
2023-04-16T11:14:52.330Z,13.82
2023-04-16T11:17:20.798Z,13.90
2023-04-16T11:19:49.090Z,13.88
2023-04-16T11:22:18.816Z,13.92
2023-04-16T11:24:47.322Z,13.91
2023-04-16T11:27:17.027Z,14.00
2023-04-16T11:29:46.934Z,14.05
2023-04-16T11:32:22.532Z,14.11
2023-04-16T11:34:50.566Z,14.18
2023-04-16T11:37:21.995Z,14.14
2023-04-16T11:39:51.304Z,14.11
2023-04-16T11:42:24.119Z,14.19
2023-04-16T11:44:56.798Z,14.19
2023-04-16T11:47:25.762Z,14.23
2023-04-16T11:49:54.011Z,14.24
2023-04-16T11:52:28.864Z,14.35
2023-04-16T11:54:57.709Z,14.34
2023-04-16T11:57:28.177Z,14.42
2023-04-16T12:00:01.454Z,14.44
2023-04-16T12:02:42.037Z,14.31
2023-04-16T12:05:28.164Z,14.37
2023-04-16T12:07:56.545Z,14.30
2023-04-16T12:10:24.706Z,14.30
2023-04-16T12:12:54.179Z,14.14
2023-04-16T12:15:22.073Z,14.12
2023-04-16T12:17:50.645Z,14.14
2023-04-16T12:20:18.572Z,14.11
2023-04-16T12:22:48.347Z,14.24
2023-04-16T12:25:17.508Z,14.30
2023-04-16T12:27:47.775Z,14.22
2023-04-16T12:30:18.587Z,14.17
2023-04-16T12:32:52.634Z,14.35
2023-04-16T12:35:31.729Z,14.32
2023-04-16T12:37:59.925Z,14.44
2023-04-16T12:40:28.233Z,14.38
2023-04-16T12:42:56.243Z,14.36
2023-04-16T12:45:26.028Z,14.43
2023-04-16T12:47:53.898Z,14.38
2023-04-16T12:50:21.874Z,14.42
2023-04-16T12:52:50.015Z,14.64
2023-04-16T12:55:18.341Z,14.80
2023-04-16T12:57:48.922Z,14.97
2023-04-16T13:00:17.802Z,15.02
2023-04-16T13:02:47.868Z,15.05
2023-04-16T13:05:19.496Z,14.98
2023-04-16T13:07:47.714Z,14.99
2023-04-16T13:10:16.702Z,14.86
2023-04-16T13:12:46.513Z,14.80
2023-04-16T13:15:14.605Z,14.80
2023-04-16T13:17:42.519Z,14.80
2023-04-16T13:20:12.350Z,14.81
2023-04-16T13:22:40.347Z,14.78
2023-04-16T13:25:09.771Z,14.83
2023-04-16T13:27:37.618Z,14.84
2023-04-16T13:30:06.404Z,14.95
2023-04-16T13:32:34.258Z,14.84
2023-04-16T13:35:02.277Z,14.80
2023-04-16T13:37:31.653Z,14.84
2023-04-16T13:39:59.578Z,14.84
2023-04-16T13:42:28.381Z,14.87
2023-04-16T13:44:58.178Z,14.96
2023-04-16T13:47:26.442Z,15.09
2023-04-16T13:49:54.451Z,15.21
2023-04-16T13:52:22.391Z,15.18
2023-04-16T13:54:51.905Z,15.20
2023-04-16T13:57:22.759Z,15.28
2023-04-16T13:59:50.732Z,14.97
2023-04-16T14:02:18.687Z,15.10
2023-04-16T14:04:46.575Z,15.01
2023-04-16T14:07:15.529Z,15.08
2023-04-16T14:09:43.514Z,15.08
2023-04-16T14:12:12.960Z,15.10
2023-04-16T14:14:42.201Z,14.94
2023-04-16T14:17:10.053Z,15.11
2023-04-16T14:19:37.904Z,15.20
2023-04-16T14:22:08.721Z,15.24
2023-04-16T14:24:37.819Z,15.30
2023-04-16T14:27:05.937Z,15.33
2023-04-16T14:29:36.651Z,15.41
2023-04-16T14:32:05.318Z,15.41
2023-04-16T14:34:33.186Z,15.41
2023-04-16T14:37:01.130Z,15.40
2023-04-16T14:39:29.512Z,15.46
2023-04-16T14:41:57.582Z,15.52
2023-04-16T14:44:25.563Z,15.67
2023-04-16T14:46:55.460Z,15.82
2023-04-16T14:49:23.254Z,15.91
2023-04-16T14:51:52.451Z,15.96
2023-04-16T14:54:20.418Z,15.99
2023-04-16T14:56:48.486Z,15.99
2023-04-16T14:59:16.417Z,15.97
2023-04-16T15:01:44.357Z,15.87
2023-04-16T15:04:13.896Z,15.71
2023-04-16T15:06:42.046Z,15.57
2023-04-16T15:09:10.427Z,15.43
2023-04-16T15:11:38.679Z,15.07
2023-04-16T15:14:06.916Z,15.02
2023-04-16T15:16:34.810Z,14.79
2023-04-16T15:19:04.960Z,14.76
2023-04-16T15:21:34.589Z,14.69
2023-04-16T15:24:03.416Z,14.61
2023-04-16T15:26:31.385Z,14.62
2023-04-16T15:28:59.239Z,14.78
2023-04-16T15:31:27.270Z,14.80
2023-04-16T15:33:56.106Z,14.81
2023-04-16T15:36:24.130Z,14.82
2023-04-16T15:38:53.683Z,14.77
2023-04-16T15:41:21.730Z,14.71
2023-04-16T15:43:49.705Z,14.62
2023-04-16T15:46:17.692Z,14.49
2023-04-16T15:48:46.738Z,14.33
2023-04-16T15:51:14.734Z,14.25
2023-04-16T15:53:44.811Z,14.24
2023-04-16T15:56:14.218Z,14.05
2023-04-16T15:58:42.241Z,14.10
2023-04-16T16:01:10.218Z,14.10
2023-04-16T16:03:38.411Z,13.84
2023-04-16T16:06:08.485Z,13.76
2023-04-16T16:08:38.338Z,13.76
2023-04-16T16:11:06.296Z,13.62
2023-04-16T16:13:37.125Z,13.68
2023-04-16T16:16:05.606Z,13.76
2023-04-16T16:18:33.458Z,13.82
2023-04-16T16:21:01.475Z,13.74
2023-04-16T16:23:29.442Z,13.61
2023-04-16T16:25:57.599Z,13.44
2023-04-16T16:28:25.554Z,13.49
2023-04-16T16:30:55.819Z,13.52
2023-04-16T16:33:23.657Z,13.50
2023-04-16T16:35:51.407Z,13.39
2023-04-16T16:38:19.197Z,13.40
2023-04-16T16:40:46.965Z,13.54
2023-04-16T16:43:14.852Z,13.59
2023-04-16T16:45:42.610Z,13.64
2023-04-16T16:48:11.827Z,13.69
2023-04-16T16:50:39.698Z,13.70
2023-04-16T16:53:07.751Z,13.60
2023-04-16T16:55:36.136Z,13.54
2023-04-16T16:58:04.689Z,13.55
2023-04-16T17:00:32.771Z,13.50
2023-04-16T17:03:01.218Z,13.52
2023-04-16T17:05:30.658Z,13.54
2023-04-16T17:07:58.482Z,13.43
2023-04-16T17:10:26.508Z,13.47
2023-04-16T17:12:55.733Z,13.55
2023-04-16T17:15:23.953Z,13.55
2023-04-16T17:17:51.867Z,13.51
2023-04-16T17:20:19.950Z,13.51
2023-04-16T17:22:49.280Z,13.55
2023-04-16T17:25:17.307Z,13.49
2023-04-16T17:27:45.049Z,13.42
2023-04-16T17:30:13.285Z,13.32
2023-04-16T17:32:41.256Z,13.33
2023-04-16T17:35:10.385Z,13.36
2023-04-16T17:37:39.080Z,13.34
2023-04-16T17:40:10.239Z,13.38
2023-04-16T17:42:38.644Z,13.35
2023-04-16T17:45:07.724Z,13.34
2023-04-16T17:47:36.244Z,13.11
2023-04-16T17:50:04.731Z,13.09
2023-04-16T17:52:32.639Z,13.02
2023-04-16T17:55:01.755Z,12.83
2023-04-16T17:57:31.568Z,12.65
2023-04-16T17:59:59.488Z,12.69
2023-04-16T18:02:27.570Z,12.77
2023-04-16T18:04:55.724Z,12.50
2023-04-16T18:07:24.046Z,12.70
2023-04-16T18:09:52.150Z,12.48
2023-04-16T18:12:20.152Z,12.56
2023-04-16T18:14:49.578Z,12.63
2023-04-16T18:17:17.799Z,12.58
2023-04-16T18:19:45.703Z,12.53
2023-04-16T18:22:13.715Z,12.59
2023-04-16T18:24:41.630Z,12.65
2023-04-16T18:27:09.686Z,12.63
2023-04-16T18:29:39.977Z,12.69
2023-04-16T18:32:11.994Z,12.60
2023-04-16T18:34:40.607Z,12.74
2023-04-16T18:37:08.836Z,12.71
2023-04-16T18:39:37.041Z,12.81
2023-04-16T18:42:05.238Z,12.89
2023-04-16T18:44:33.162Z,12.80
2023-04-16T18:47:01.038Z,12.75
2023-04-16T18:49:30.658Z,12.59
2023-04-16T18:51:58.393Z,12.63
2023-04-16T18:54:28.043Z,12.52
2023-04-16T18:56:57.318Z,12.61
2023-04-16T18:59:25.960Z,12.67
2023-04-16T19:01:54.065Z,12.70
2023-04-16T19:04:22.022Z,12.77
2023-04-16T19:06:51.374Z,12.58
2023-04-16T19:09:19.895Z,12.71
2023-04-16T19:11:50.602Z,12.77
2023-04-16T19:14:18.546Z,12.76
2023-04-16T19:16:46.489Z,12.78
2023-04-16T19:19:14.471Z,12.81
2023-04-16T19:21:42.362Z,12.75
2023-04-16T19:24:11.571Z,12.69
2023-04-16T19:26:39.500Z,12.75
2023-04-16T19:29:07.324Z,12.67
2023-04-16T19:31:35.132Z,12.75
2023-04-16T19:34:04.193Z,12.79
2023-04-16T19:36:32.434Z,12.84
2023-04-16T19:39:00.172Z,12.83
2023-04-16T19:41:29.281Z,12.87
2023-04-16T19:43:57.914Z,12.74
2023-04-16T19:46:25.931Z,12.57
2023-04-16T19:48:53.772Z,12.47
2023-04-16T19:51:21.598Z,12.43
2023-04-16T19:53:49.573Z,12.44
2023-04-16T19:56:17.597Z,12.41
2023-04-16T19:58:46.807Z,12.53
2023-04-16T20:01:14.599Z,12.64
2023-04-16T20:03:42.728Z,12.65
2023-04-16T20:06:10.609Z,12.63
2023-04-16T20:08:38.747Z,12.55
2023-04-16T20:11:08.455Z,12.34
2023-04-16T20:13:37.721Z,12.46
2023-04-16T20:16:08.508Z,12.49
2023-04-16T20:18:41.205Z,12.49
2023-04-16T20:21:09.382Z,12.50
2023-04-16T20:23:37.307Z,12.34
2023-04-16T20:26:05.492Z,12.18
2023-04-16T20:28:33.204Z,12.14
2023-04-16T20:31:01.121Z,12.11
2023-04-16T20:33:30.379Z,11.99
2023-04-16T20:35:58.352Z,11.87
2023-04-16T20:38:26.122Z,12.03
2023-04-16T20:41:06.391Z,11.97
2023-04-16T20:43:38.349Z,12.03
2023-04-16T20:46:06.238Z,12.15
2023-04-16T20:48:36.085Z,12.22
2023-04-16T20:51:05.298Z,12.29
2023-04-16T20:53:33.824Z,12.20
2023-04-16T20:56:01.744Z,12.27
2023-04-16T20:58:30.125Z,12.34
2023-04-16T21:00:58.567Z,12.38
2023-04-16T21:03:26.547Z,12.39
2023-04-16T21:05:56.716Z,12.38
2023-04-16T21:08:24.987Z,12.40
2023-04-16T21:10:52.818Z,12.44
2023-04-16T21:13:21.799Z,12.41
2023-04-16T21:15:49.599Z,12.45
2023-04-16T21:18:18.559Z,12.50
2023-04-16T21:20:46.388Z,12.52
2023-04-16T21:23:15.594Z,12.51
2023-04-16T21:25:43.405Z,12.51
2023-04-16T21:28:11.219Z,12.41
2023-04-16T21:30:39.451Z,12.41
2023-04-16T21:33:07.829Z,12.39
2023-04-16T21:35:35.859Z,12.43
2023-04-16T21:38:03.892Z,12.50
2023-04-16T21:40:33.155Z,12.38
2023-04-16T21:43:01.112Z,12.42
2023-04-16T21:45:30.523Z,12.36
2023-04-16T21:47:58.503Z,12.32
2023-04-16T21:50:26.401Z,12.34
2023-04-16T21:52:54.823Z,12.40
2023-04-16T21:55:22.637Z,12.35
2023-04-16T21:57:51.741Z,12.44
2023-04-16T22:00:21.124Z,12.41
2023-04-16T22:02:49.211Z,12.45
2023-04-16T22:05:17.567Z,12.50
2023-04-16T22:07:45.319Z,12.53
2023-04-16T22:10:15.159Z,12.47
2023-04-16T22:12:44.859Z,12.52
2023-04-16T22:15:14.767Z,12.51
2023-04-16T22:17:42.727Z,12.54
2023-04-16T22:20:12.745Z,12.53
2023-04-16T22:22:40.615Z,12.55
2023-04-16T22:25:09.167Z,12.55
2023-04-16T22:27:37.240Z,12.59
2023-04-16T22:30:06.052Z,12.56
2023-04-16T22:32:35.405Z,12.65
2023-04-16T22:35:03.396Z,12.66
2023-04-16T22:37:31.296Z,12.65
2023-04-16T22:39:59.044Z,12.67
2023-04-16T22:42:27.048Z,12.69
2023-04-16T22:44:54.815Z,12.72
2023-04-16T22:47:22.651Z,12.78
2023-04-16T22:49:51.890Z,12.64
2023-04-16T22:52:19.604Z,12.65
2023-04-16T22:54:47.424Z,12.64
2023-04-16T22:57:17.332Z,12.67
2023-04-16T22:59:45.074Z,12.67
2023-04-16T23:02:12.819Z,12.66
2023-04-16T23:04:40.690Z,12.71
2023-04-16T23:07:10.122Z,12.71
2023-04-16T23:09:37.906Z,12.58
2023-04-16T23:12:06.191Z,12.56
2023-04-16T23:14:34.497Z,12.51
2023-04-16T23:17:02.497Z,12.47
2023-04-16T23:19:31.189Z,12.44
2023-04-16T23:21:59.091Z,12.52
2023-04-16T23:24:28.288Z,12.53
2023-04-16T23:26:56.050Z,12.56
2023-04-16T23:29:24.077Z,12.60
2023-04-16T23:31:52.187Z,12.62
2023-04-16T23:34:20.051Z,12.67
2023-04-16T23:36:47.898Z,12.70
2023-04-16T23:39:15.793Z,12.75
2023-04-16T23:41:44.897Z,12.71
2023-04-16T23:44:12.662Z,12.62
2023-04-16T23:46:41.077Z,12.68
2023-04-16T23:49:09.072Z,12.66
2023-04-16T23:51:36.950Z,12.65
2023-04-16T23:54:04.951Z,12.61
2023-04-16T23:56:32.668Z,12.61
2023-04-16T23:59:01.794Z,12.61
